Time;durP1;ratioP1;P1;durP2;ratioP2;P2;SDS_P1;SDS_P2;PMS_P1;PMS_P2;Temp;Humidity;BMP_temperature;BMP_pressure;BME280_temperature;BME280_humidity;BME280_pressure;Samples;Min_cycle;Max_cycle;Signal;HPM_P1;HPM_P2
2022/09/03 00:00:20;;;;;;;6.85;4.80;;;;;;;15.60;83.33;93920.16;5005093;28;20037;-75
2022/09/03 00:02:57;;;;;;;;;;;;;;;15.63;83.35;93932.91;5005483;28;20033;-75
2022/09/03 00:05:33;;;;;;;8.52;4.28;;;;;;;15.67;83.90;93938.38;5004704;28;19960;-74
2022/09/03 00:08:20;;;;;;;8.68;4.78;;;;;;;15.69;83.60;93936.13;5004874;28;20053;-74
2022/09/03 00:10:55;;;;;;;6.13;4.05;;;;;;;15.60;82.94;93941.66;5004853;28;20034;-74
2022/09/03 00:13:38;;;;;;;8.93;5.07;;;;;;;15.62;83.11;93939.41;5004722;28;20060;-73
2022/09/03 00:16:09;;;;;;;7.30;4.65;;;;;;;15.63;83.25;93940.94;5019079;28;20026;-73
2022/09/03 00:18:40;;;;;;;7.65;4.47;;;;;;;15.56;82.74;93935.41;5004606;28;20018;-73
2022/09/03 00:21:21;;;;;;;6.68;4.43;;;;;;;15.58;82.48;93936.63;5004450;28;20030;-74
2022/09/03 00:23:49;;;;;;;6.70;4.38;;;;;;;15.65;82.93;93934.13;5004752;28;20022;-73
2022/09/03 00:26:27;;;;;;;8.65;5.03;;;;;;;15.69;82.64;93928.84;5004484;28;20022;-74
2022/09/03 00:29:02;;;;;;;9.60;4.65;;;;;;;15.70;82.58;93925.03;5004487;28;20022;-74
2022/09/03 00:31:57;;;;;;;7.18;4.30;;;;;;;15.68;82.64;93924.59;5004391;28;20052;-73
2022/09/03 00:34:29;;;;;;;10.70;5.25;;;;;;;15.75;81.47;93924.84;5003150;28;20037;-73
2022/09/03 00:36:55;;;;;;;9.90;4.85;;;;;;;15.76;81.75;93929.06;5004085;28;20026;-73
2022/09/03 00:39:23;;;;;;;8.57;4.38;;;;;;;15.74;81.58;93917.88;5003916;28;20045;-73
2022/09/03 00:42:06;;;;;;;8.55;4.80;;;;;;;15.60;81.22;93920.16;5003732;28;20347;-73
2022/09/03 00:44:57;;;;;;;7.63;4.90;;;;;;;15.61;82.37;93927.09;5003431;28;20312;-74
2022/09/03 00:47:31;;;;;;;7.53;4.93;;;;;;;15.69;82.21;93923.47;5003648;28;20328;-73
2022/09/03 00:50:22;;;;;;;9.43;5.43;;;;;;;15.75;82.41;93924.84;5003884;28;20030;-74
2022/09/03 00:53:02;;;;;;;10.93;5.25;;;;;;;15.70;82.66;93922.34;5003957;28;20129;-74
2022/09/03 00:55:34;;;;;;;10.35;6.10;;;;;;;15.69;82.28;93926.16;5003740;28;20093;-74
2022/09/03 00:58:19;;;;;;;7.03;4.97;;;;;;;15.67;82.59;93936.47;5003800;28;20253;-73
2022/09/03 01:00:45;;;;;;;8.10;5.43;;;;;;;15.70;82.76;93935.00;5003928;28;20037;-74
2022/09/03 01:03:21;;;;;;;9.52;5.40;;;;;;;15.67;83.02;93923.03;5003764;28;20030;-74
2022/09/03 01:05:59;;;;;;;10.63;5.80;;;;;;;15.69;82.95;93934.22;5003756;28;20133;-74
2022/09/03 01:08:35;;;;;;;9.52;5.15;;;;;;;15.72;83.04;93922.81;5003772;28;20030;-73
2022/09/03 01:11:15;;;;;;;11.65;5.63;;;;;;;15.69;83.03;93934.22;5003569;28;20264;-74
2022/09/03 01:13:53;;;;;;;10.45;5.38;;;;;;;15.61;82.64;93921.72;5003672;28;20030;-74
2022/09/03 01:16:43;;;;;;;8.80;5.63;;;;;;;15.58;82.97;93930.47;5003500;28;20046;-74
2022/09/03 01:19:34;;;;;;;7.60;4.85;;;;;;;15.36;82.78;93937.16;5018646;28;20041;-74
2022/09/03 01:22:23;;;;;;;11.40;5.10;;;;;;;15.38;82.90;93938.38;5003609;28;20224;-73
2022/09/03 01:25:30;;;;;;;10.18;6.57;;;;;;;15.39;83.23;93937.25;5003450;28;20022;-73
2022/09/03 01:28:00;;;;;;;9.15;4.70;;;;;;;15.35;82.88;93936.38;5002528;28;20061;-73
2022/09/03 01:30:30;;;;;;;7.10;4.85;;;;;;;15.33;82.66;93946.69;5003368;28;20092;-73
2022/09/03 01:33:08;;;;;;;10.10;5.93;;;;;;;15.24;82.97;93946.81;5003454;28;20022;-73
2022/09/03 01:35:45;;;;;;;7.40;4.90;;;;;;;15.21;83.75;93952.84;5003170;28;20106;-72
2022/09/03 01:38:24;;;;;;;9.75;6.18;;;;;;;15.15;83.89;93956.91;5003183;28;20034;-73
2022/09/03 01:42:12;;;;;;;7.20;4.68;;;;;;;15.09;83.94;93960.16;5003366;28;20030;-73
2022/09/03 01:43:57;;;;;;;6.93;4.68;;;;;;;15.02;84.18;93949.97;5003537;28;20030;-72
2022/09/03 01:46:35;;;;;;;9.35;5.30;;;;;;;15.10;84.34;93956.34;5002951;28;20102;-73
2022/09/03 01:49:21;;;;;;;10.52;5.47;;;;;;;15.08;84.60;93945.16;5003118;28;20025;-73
2022/09/03 01:51:56;;;;;;;10.18;5.00;;;;;;;15.05;84.22;93939.34;5003243;28;20088;-72
2022/09/03 01:54:42;;;;;;;8.63;5.38;;;;;;;15.15;84.50;93935.41;5003200;28;20032;-73
2022/09/03 01:57:26;;;;;;;8.35;5.22;;;;;;;15.15;83.43;93940.00;5002941;28;20165;-73
2022/09/03 02:00:03;;;;;;;7.05;4.60;;;;;;;15.22;82.97;93932.94;5003080;28;20030;-74
2022/09/03 02:02:29;;;;;;;5.70;3.88;;;;;;;15.24;82.85;93946.03;5003056;28;20026;-73
2022/09/03 02:05:08;;;;;;;13.38;4.85;;;;;;;15.19;82.96;93935.53;5003084;28;20026;-73
2022/09/03 02:07:51;;;;;;;9.18;5.30;;;;;;;15.23;82.81;93934.50;5003087;28;20022;-73
2022/09/03 02:10:38;;;;;;;6.40;4.75;;;;;;;15.16;83.05;93937.00;5003250;28;20233;-73
2022/09/03 02:13:08;;;;;;;6.80;4.07;;;;;;;15.24;82.54;93946.03;5003056;28;20029;-73
2022/09/03 02:15:37;;;;;;;7.22;4.50;;;;;;;15.17;82.20;93951.97;5002909;28;20347;-74
2022/09/03 02:18:09;;;;;;;9.23;5.03;;;;;;;15.28;82.32;93944.22;5002982;28;20320;-74
2022/09/03 02:20:36;;;;;;;8.38;4.80;;;;;;;15.27;82.33;93956.09;5002951;28;20030;-74
2022/09/03 02:23:02;;;;;;;8.95;4.40;;;;;;;15.31;81.77;93950.84;5002853;28;20026;-74
2022/09/03 02:25:51;;;;;;;6.53;4.53;;;;;;;15.34;82.04;93956.28;5002918;28;20018;-74
2022/09/03 02:28:17;;;;;;;6.30;4.30;;;;;;;15.35;82.16;93949.03;5002760;28;20053;-73
2022/09/03 02:30:43;;;;;;;10.43;4.90;;;;;;;15.39;81.63;93953.38;5003023;28;20026;-73
2022/09/03 02:33:09;;;;;;;6.50;4.63;;;;;;;15.41;81.73;93961.88;5002850;28;20319;-73
2022/09/03 02:35:35;;;;;;;10.77;5.20;;;;;;;15.45;81.47;93961.97;5002817;28;20036;-73
2022/09/03 02:38:18;;;;;;;8.10;4.88;;;;;;;15.37;81.38;93955.63;5003551;28;20038;-73
2022/09/03 02:40:44;;;;;;;8.82;4.72;;;;;;;15.44;80.92;93955.81;5006482;28;20030;-73
2022/09/03 02:43:19;;;;;;;8.65;4.72;;;;;;;15.44;81.40;93963.09;5006299;28;20036;-73
2022/09/03 02:45:49;;;;;;;9.00;4.75;;;;;;;15.42;81.75;93960.72;5006426;28;20022;-73
2022/09/03 02:48:21;;;;;;;9.63;5.18;;;;;;;15.41;80.80;93955.72;5006295;28;20033;-74
2022/09/03 02:50:47;;;;;;;6.25;4.45;;;;;;;15.43;80.79;93958.84;5006335;28;20128;-74
2022/09/03 02:53:12;;;;;;;10.23;5.95;;;;;;;15.43;80.99;93962.31;5006125;28;20038;-73
2022/09/03 02:55:38;;;;;;;9.80;5.25;;;;;;;15.41;81.55;93974.53;5005905;28;20034;-73
2022/09/03 02:58:05;;;;;;;8.68;5.25;;;;;;;15.42;81.21;93971.47;5006107;28;20034;-74
2022/09/03 03:00:31;;;;;;;9.15;5.03;;;;;;;15.41;81.30;93967.25;5005966;28;20037;-74
2022/09/03 03:02:57;;;;;;;7.72;4.88;;;;;;;15.42;81.24;93968.78;5005989;28;20030;-73
2022/09/03 03:06:14;;;;;;;8.25;5.03;;;;;;;15.40;81.85;93962.97;5006019;28;20021;-73
2022/09/03 03:08:39;;;;;;;11.52;6.07;;;;;;;15.38;83.09;93959.84;4983292;28;20041;-73
2022/09/03 03:11:05;;;;;;;10.73;6.25;;;;;;;15.35;83.74;93968.59;5005712;28;20022;-74
2022/09/03 03:13:32;;;;;;;12.02;6.65;;;;;;;15.33;83.81;93956.66;5005852;28;20037;-74
2022/09/03 03:16:02;;;;;;;11.13;6.63;;;;;;;15.38;83.37;93954.47;5005927;28;20034;-73
2022/09/03 03:18:28;;;;;;;14.23;6.28;;;;;;;15.40;83.46;93959.50;5005872;28;20041;-73
2022/09/03 03:20:54;;;;;;;11.18;6.57;;;;;;;15.36;83.57;93954.03;5005603;28;20224;-74
2022/09/03 03:23:20;;;;;;;12.52;6.78;;;;;;;15.37;83.80;93957.53;5005514;28;20030;-73
2022/09/03 03:25:46;;;;;;;15.55;7.30;;;;;;;15.40;83.22;93954.16;5005789;28;20026;-73
2022/09/03 03:28:12;;;;;;;21.02;8.20;;;;;;;15.41;83.67;93955.72;5005703;28;20045;-74
2022/09/03 03:30:39;;;;;;;11.35;6.47;;;;;;;15.40;82.83;93954.91;5005616;28;20304;-74
2022/09/03 03:33:05;;;;;;;11.13;6.85;;;;;;;15.41;83.03;93972.59;5005544;28;20030;-75
2022/09/03 03:35:31;;;;;;;19.80;6.72;;;;;;;15.42;82.53;93963.41;5005289;28;20081;-74
2022/09/03 03:38:00;;;;;;;9.68;6.57;;;;;;;15.36;82.72;93964.78;5005584;28;20026;-74
2022/09/03 03:40:25;;;;;;;11.30;7.05;;;;;;;15.36;82.81;93958.63;5005513;28;20053;-74
2022/09/03 03:42:52;;;;;;;12.05;7.38;;;;;;;15.35;82.64;93960.53;5005389;28;20089;-73
2022/09/03 03:45:18;;;;;;;12.05;7.05;;;;;;;15.37;83.37;93961.00;5005274;28;20029;-73
2022/09/03 03:47:43;;;;;;;10.48;6.57;;;;;;;15.39;82.97;93952.59;5005105;28;20046;-74
2022/09/03 03:50:08;;;;;;;10.15;6.22;;;;;;;15.43;82.63;93966.91;5004275;28;20097;-74
2022/09/03 03:52:34;;;;;;;11.30;6.22;;;;;;;15.36;82.97;93959.41;5005210;28;20348;-74
2022/09/03 03:54:59;;;;;;;11.80;7.35;;;;;;;15.25;83.17;93966.38;5005060;28;20022;-74
2022/09/03 03:57:25;;;;;;;13.77;6.80;;;;;;;15.28;83.75;93972.97;5004899;28;20018;-74
2022/09/03 03:59:50;;;;;;;11.77;6.15;;;;;;;15.27;84.03;93968.75;5004926;28;20052;-74
2022/09/03 04:02:16;;;;;;;13.57;6.47;;;;;;;15.23;84.03;93976.69;5005285;28;20018;-74
2022/09/03 04:04:42;;;;;;;13.07;7.63;;;;;;;15.25;84.15;93971.75;5004903;28;20316;-74
2022/09/03 04:07:08;;;;;;;14.25;8.00;;;;;;;15.31;83.80;93975.00;5004614;28;20061;-74
2022/09/03 04:09:34;;;;;;;10.23;7.13;;;;;;;15.22;83.60;93969.75;5004876;28;20080;-74
2022/09/03 04:11:59;;;;;;;11.75;7.57;;;;;;;15.22;83.85;93967.84;5004667;28;20087;-74
2022/09/03 04:14:26;;;;;;;13.32;6.40;;;;;;;15.21;83.86;93966.28;5004651;28;20089;-73
2022/09/03 04:16:52;;;;;;;15.60;6.45;;;;;;;15.23;83.91;93968.63;5004684;28;20194;-73
2022/09/03 04:19:18;;;;;;;11.77;6.38;;;;;;;15.23;83.93;93965.94;5004666;28;20089;-73
2022/09/03 04:21:44;;;;;;;12.73;6.22;;;;;;;15.24;83.99;93964.81;5004632;28;20280;-73
2022/09/03 04:24:10;;;;;;;10.45;6.57;;;;;;;15.30;83.45;93966.13;5004524;28;20559;-74
2022/09/03 04:26:35;;;;;;;12.70;6.60;;;;;;;15.32;83.51;93965.81;5004547;28;20138;-74
2022/09/03 04:29:04;;;;;;;10.00;6.70;;;;;;;15.42;83.39;93976.06;5019450;28;20037;-74
2022/09/03 04:31:30;;;;;;;13.75;6.32;;;;;;;15.48;83.06;93969.34;5004526;28;20026;-74
2022/09/03 04:33:55;;;;;;;13.00;6.63;;;;;;;15.49;83.02;93978.97;5004388;28;20225;-74
2022/09/03 04:36:23;;;;;;;10.90;6.18;;;;;;;15.55;83.06;93982.19;5004088;28;20035;-73
2022/09/03 04:38:53;;;;;;;9.40;6.50;;;;;;;15.58;82.35;93992.25;5004423;28;20099;-71
2022/09/03 04:41:24;;;;;;;9.57;6.53;;;;;;;15.53;82.44;93990.59;5004319;28;20085;-72
2022/09/03 04:43:51;;;;;;;10.30;6.15;;;;;;;15.51;82.33;93998.22;5004159;28;20029;-72
2022/09/03 04:46:19;;;;;;;15.95;6.78;;;;;;;15.52;82.53;93999.00;5004203;28;20038;-73
2022/09/03 04:48:49;;;;;;;12.40;6.78;;;;;;;15.45;82.67;93996.91;5004087;28;20099;-74
2022/09/03 04:51:17;;;;;;;8.73;5.50;;;;;;;15.37;83.25;94003.19;5004001;28;20025;-73
2022/09/03 04:53:45;;;;;;;8.90;5.38;;;;;;;15.38;82.58;94012.78;5004050;28;20041;-73
2022/09/03 04:56:18;;;;;;;15.27;6.35;;;;;;;15.42;82.02;94019.81;5003764;28;20105;-73
2022/09/03 04:58:44;;;;;;;9.02;4.68;;;;;;;15.40;82.13;94014.00;5003820;28;20030;-73
2022/09/03 05:01:17;;;;;;;10.18;6.15;;;;;;;15.36;82.17;94015.81;5003750;28;20026;-73
2022/09/03 05:03:43;;;;;;;16.20;5.88;;;;;;;15.33;82.47;94004.97;5003892;28;20257;-73
2022/09/03 05:06:09;;;;;;;8.88;5.78;;;;;;;15.32;82.24;94020.28;5003812;28;20064;-73
2022/09/03 05:08:36;;;;;;;7.93;5.50;;;;;;;15.31;82.01;94017.97;5004015;28;20049;-74
2022/09/03 05:11:06;;;;;;;8.40;5.13;;;;;;;15.37;81.73;94024.66;5003830;28;20033;-75
2022/09/03 05:13:33;;;;;;;8.13;5.15;;;;;;;15.37;82.33;94025.44;5004071;28;20022;-74
2022/09/03 05:16:07;;;;;;;13.60;5.82;;;;;;;15.35;82.36;94025.00;5003442;28;20034;-73
2022/09/03 05:18:37;;;;;;;10.77;6.30;;;;;;;15.41;82.47;94020.97;5003601;28;20375;-73
2022/09/03 05:21:05;;;;;;;9.90;5.85;;;;;;;15.34;82.58;94004.63;5003610;28;20022;-73
2022/09/03 05:23:34;;;;;;;11.25;5.97;;;;;;;15.39;83.10;94023.19;5003479;28;20097;-73
2022/09/03 05:26:02;;;;;;;8.07;5.43;;;;;;;15.40;83.02;94014.00;5003518;28;20021;-73
2022/09/03 05:28:29;;;;;;;12.68;5.70;;;;;;;15.39;82.75;94012.44;5003361;28;20304;-74
2022/09/03 05:31:03;;;;;;;9.23;5.57;;;;;;;15.41;82.96;94020.97;5003515;28;20049;-73
2022/09/03 05:33:32;;;;;;;9.85;5.53;;;;;;;15.41;82.25;94012.91;5003253;28;20026;-73
2022/09/03 05:36:02;;;;;;;8.68;5.53;;;;;;;15.52;80.72;94023.94;5003297;28;20045;-70
2022/09/03 05:38:27;;;;;;;7.78;4.10;;;;;;;15.45;79.74;94032.59;5003349;28;20034;-72
2022/09/03 05:40:53;;;;;;;6.97;4.75;;;;;;;15.37;81.42;94027.34;5003407;28;20026;-76
2022/09/03 05:43:19;;;;;;;6.63;4.47;;;;;;;15.39;81.38;94033.16;5003345;28;20321;-77
2022/09/03 05:45:45;;;;;;;7.63;4.10;;;;;;;15.50;81.57;94033.47;5003140;28;20018;-77
2022/09/03 05:48:10;;;;;;;8.20;4.63;;;;;;;15.55;80.95;94030.53;5003270;28;20029;-75
2022/09/03 05:50:36;;;;;;;9.20;5.65;;;;;;;15.54;80.28;94034.34;5003409;28;20026;-76
2022/09/03 05:53:01;;;;;;;7.45;5.00;;;;;;;15.54;80.31;94042.41;5003195;28;20018;-76
2022/09/03 05:55:27;;;;;;;10.88;4.85;;;;;;;15.56;80.26;94032.13;5002974;28;20033;-76
2022/09/03 05:57:53;;;;;;;12.35;5.13;;;;;;;15.62;80.38;94039.59;5003220;28;20343;-75
2022/09/03 06:00:19;;;;;;;6.75;4.63;;;;;;;15.63;79.74;94037.69;5003146;28;20018;-74
2022/09/03 06:02:52;;;;;;;8.02;4.80;;;;;;;15.65;80.13;94032.75;5002938;28;20089;-78
2022/09/03 06:05:18;;;;;;;9.02;4.50;;;;;;;15.61;79.21;94046.09;5003443;28;20022;-78
2022/09/03 06:07:44;;;;;;;8.93;5.45;;;;;;;15.64;80.17;94040.03;5002880;28;20046;-78
2022/09/03 06:10:11;;;;;;;6.85;4.55;;;;;;;15.70;79.53;94039.81;5003273;28;20026;-77
2022/09/03 06:12:37;;;;;;;7.13;5.20;;;;;;;15.78;79.33;94039.69;5003226;28;20117;-76
2022/09/03 06:15:04;;;;;;;9.27;5.22;;;;;;;15.83;78.98;94052.91;5006957;28;20149;-78
2022/09/03 06:17:30;;;;;;;7.15;4.13;;;;;;;15.93;78.02;94045.47;5006805;28;20029;-79
2022/09/03 06:19:55;;;;;;;7.40;4.57;;;;;;;15.93;77.66;94050.84;5006869;28;20380;-78
2022/09/03 06:22:23;;;;;;;6.60;4.28;;;;;;;16.00;76.93;94057.19;5006830;28;20228;-77
2022/09/03 06:24:49;;;;;;;6.82;4.15;;;;;;;15.96;76.58;94060.91;5006873;28;20264;-76
2022/09/03 06:27:14;;;;;;;6.90;4.60;;;;;;;15.96;76.90;94050.94;5006648;28;20068;-77
2022/09/03 06:29:40;;;;;;;6.18;3.97;;;;;;;16.00;76.51;94056.41;5006321;28;20057;-77
2022/09/03 06:32:05;;;;;;;6.60;4.55;;;;;;;15.94;75.59;94063.94;5006531;28;20069;-77
2022/09/03 06:34:31;;;;;;;5.88;3.85;;;;;;;15.96;76.17;94061.69;5006570;28;20045;-77
2022/09/03 06:36:57;;;;;;;7.53;5.18;;;;;;;15.97;76.29;94063.25;5006445;28;20105;-72
2022/09/03 06:39:23;;;;;;;6.82;4.50;;;;;;;16.04;75.95;94060.00;5006425;28;20029;-72
2022/09/03 06:41:50;;;;;;;6.30;3.85;;;;;;;16.14;75.42;94072.13;5006623;28;20233;-72
2022/09/03 06:44:16;;;;;;;6.18;4.10;;;;;;;16.18;74.93;94067.63;5006474;28;20033;-71
2022/09/03 06:46:41;;;;;;;9.25;4.88;;;;;;;16.19;74.92;94067.31;5006275;28;20046;-72
2022/09/03 06:49:07;;;;;;;9.00;4.60;;;;;;;16.31;75.53;94063.00;5006375;28;20324;-73
2022/09/03 06:51:33;;;;;;;6.63;4.55;;;;;;;16.34;74.70;94070.38;5006360;28;20022;-74
2022/09/03 06:54:01;;;;;;;6.45;4.70;;;;;;;16.44;75.10;94065.28;5006162;28;20409;-73
2022/09/03 06:56:26;;;;;;;8.13;5.10;;;;;;;16.54;74.93;94066.66;5005967;28;20061;-73
2022/09/03 06:58:57;;;;;;;7.20;4.68;;;;;;;16.60;75.08;94073.38;5006069;28;20018;-73
2022/09/03 07:01:26;;;;;;;6.75;4.35;;;;;;;16.71;74.00;94067.47;5006109;28;20068;-73
2022/09/03 07:03:55;;;;;;;6.80;4.88;;;;;;;16.74;74.39;94078.34;5005792;28;20030;-72
2022/09/03 07:06:23;;;;;;;7.88;5.13;;;;;;;16.65;73.64;94083.88;5005928;28;20037;-72
2022/09/03 07:08:49;;;;;;;8.07;4.75;;;;;;;16.67;73.80;94077.38;5006117;28;20022;-73
2022/09/03 07:11:18;;;;;;;7.80;4.18;;;;;;;16.74;73.81;94074.88;5005727;28;20150;-73
2022/09/03 07:13:48;;;;;;;11.52;5.20;;;;;;;16.80;73.75;94070.78;5005657;28;20038;-71
2022/09/03 07:16:22;;;;;;;7.50;4.40;;;;;;;16.73;72.69;94078.66;5005676;28;20033;-72
2022/09/03 07:18:49;;;;;;;6.50;4.72;;;;;;;16.67;73.63;94094.31;5021129;28;20026;-72
2022/09/03 07:21:17;;;;;;;10.45;4.88;;;;;;;16.67;72.58;94085.44;5005710;28;20069;-73
2022/09/03 07:23:43;;;;;;;8.48;5.15;;;;;;;16.64;72.83;94089.59;5005686;28;20260;-72
2022/09/03 07:26:11;;;;;;;7.13;5.00;;;;;;;16.72;72.76;94095.97;5005421;28;20086;-77
2022/09/03 07:28:38;;;;;;;7.75;4.55;;;;;;;16.72;72.92;94090.56;5005527;28;20212;-77
2022/09/03 07:31:10;;;;;;;5.75;4.35;;;;;;;16.78;73.54;94099.97;5005712;28;20267;-78
2022/09/03 07:33:37;;;;;;;6.05;4.25;;;;;;;16.88;72.68;94104.84;5005378;28;20124;-77
2022/09/03 07:36:07;;;;;;;6.90;4.70;;;;;;;16.90;72.45;94091.84;5005229;28;20097;-77
2022/09/03 07:38:34;;;;;;;7.90;5.03;;;;;;;17.07;72.35;94095.31;5005124;28;20021;-76
2022/09/03 07:41:01;;;;;;;7.07;5.38;;;;;;;16.97;73.04;94108.16;5005012;28;20061;-77
2022/09/03 07:43:28;;;;;;;9.38;4.60;;;;;;;17.08;73.24;94102.28;5005268;28;20030;-77
2022/09/03 07:45:54;;;;;;;6.22;4.32;;;;;;;17.23;71.00;94096.06;5004923;28;20049;-77
2022/09/03 07:48:20;;;;;;;8.23;5.57;;;;;;;17.25;71.35;94097.28;5005411;28;20030;-77
2022/09/03 07:50:46;;;;;;;6.07;4.47;;;;;;;17.19;70.79;94098.69;5005202;28;20018;-77
2022/09/03 07:53:12;;;;;;;9.02;4.90;;;;;;;17.16;71.01;94101.31;5004909;28;20030;-78
2022/09/03 07:55:38;;;;;;;8.35;5.88;;;;;;;17.17;72.00;94103.63;5005330;28;20026;-90
2022/09/03 07:58:03;;;;;;;9.90;5.03;;;;;;;17.32;71.11;94110.16;5006210;28;20022;-90
2022/09/03 08:00:31;;;;;;;6.50;4.88;;;;;;;17.41;70.43;94096.50;5006231;28;20034;-90
2022/09/03 08:03:02;;;;;;;7.65;4.75;;;;;;;17.50;69.96;94115.16;5006329;28;20220;-91
2022/09/03 08:05:28;;;;;;;7.95;5.38;;;;;;;17.55;70.50;94104.91;5005984;28;20024;-91
2022/09/03 08:07:53;;;;;;;5.85;4.35;;;;;;;17.59;69.98;94115.75;5005749;28;20038;-92
2022/09/03 08:10:20;;;;;;;6.75;4.60;;;;;;;17.56;69.90;94111.84;5005041;28;20022;-89
2022/09/03 08:12:45;;;;;;;6.18;4.15;;;;;;;17.52;68.80;94118.28;5006500;28;20049;-93
2022/09/03 08:15:11;;;;;;;5.47;4.40;;;;;;;17.58;70.03;94114.97;5006016;28;20022;-92
2022/09/03 08:17:36;;;;;;;6.30;4.07;;;;;;;17.64;69.62;94112.78;5021792;28;20041;-92
2022/09/03 08:20:03;;;;;;;6.38;4.63;;;;;;;17.75;69.73;94116.50;5005874;28;20101;-91
2022/09/03 08:22:28;;;;;;;6.00;4.53;;;;;;;17.67;68.87;94122.88;5006323;28;20037;-90
2022/09/03 08:24:54;;;;;;;5.93;4.70;;;;;;;17.74;68.71;94112.25;5006973;28;20025;-92
2022/09/03 08:27:24;;;;;;;7.22;4.63;;;;;;;17.76;68.83;94109.97;5005689;28;20010;-89
2022/09/03 08:29:50;;;;;;;6.65;4.30;;;;;;;17.69;68.35;94109.84;5005301;28;20022;-85
2022/09/03 08:32:15;;;;;;;5.45;3.72;;;;;;;17.70;68.17;94114.06;5004443;28;20029;-87
2022/09/03 08:34:41;;;;;;;6.68;4.82;;;;;;;17.70;68.99;94111.38;5003982;28;20050;-74
2022/09/03 08:37:08;;;;;;;7.65;5.38;;;;;;;17.77;68.81;94108.09;5003397;28;20053;-75
2022/09/03 08:39:34;;;;;;;6.47;4.45;;;;;;;17.87;68.42;94115.66;5003779;28;20235;-75
2022/09/03 08:42:24;;;;;;;5.68;4.00;;;;;;;17.95;67.64;94114.66;5004078;28;20049;-79
2022/09/03 08:45:06;;;;;;;5.13;4.28;;;;;;;18.08;67.94;94112.59;5004273;28;20198;-79
2022/09/03 08:48:14;;;;;;;7.07;5.22;;;;;;;18.13;67.39;94104.22;5003841;28;20046;-78
2022/09/03 08:50:44;;;;;;;11.35;5.03;;;;;;;18.19;67.01;94102.03;4963170;29;20512;-77
2022/09/03 08:53:21;;;;;;;6.50;4.82;;;;;;;18.30;66.59;94104.94;4963063;28;20160;-76
2022/09/03 08:55:51;;;;;;;6.70;4.72;;;;;;;18.39;65.43;94108.19;4987802;28;20046;-76
2022/09/03 08:58:29;;;;;;;13.68;5.47;;;;;;;18.48;67.19;94106.06;5003770;28;20065;-77
2022/09/03 09:01:33;;;;;;;7.43;4.13;;;;;;;18.60;64.57;94102.41;5003785;28;20095;-88
2022/09/03 09:04:20;;;;;;;6.13;4.50;;;;;;;18.54;64.81;94109.25;4982957;28;20308;-80
2022/09/03 09:06:46;;;;;;;7.95;5.47;;;;;;;18.67;65.76;94110.66;5002946;28;20018;-80
2022/09/03 09:09:17;;;;;;;6.05;4.53;;;;;;;18.80;64.16;94114.75;5003433;28;20033;-80
2022/09/03 09:12:07;;;;;;;6.93;4.93;;;;;;;18.85;64.11;94113.72;5003827;28;20201;-81
2022/09/03 09:15:08;;;;;;;9.68;5.45;;;;;;;18.93;64.96;94125.41;5002465;28;20344;-80
2022/09/03 09:18:00;;;;;;;6.35;4.43;;;;;;;18.99;63.93;94113.16;4982590;28;20264;-80
2022/09/03 09:20:37;;;;;;;7.38;4.97;;;;;;;19.04;63.81;94116.34;5002902;28;20022;-80
2022/09/03 09:23:11;;;;;;;7.90;5.63;;;;;;;19.00;64.81;94117.44;5001911;28;20080;-81
2022/09/03 09:25:45;;;;;;;6.47;5.07;;;;;;;18.95;63.78;94123.13;5001698;28;20292;-81
2022/09/03 09:28:18;;;;;;;7.35;5.55;;;;;;;18.92;64.97;94121.16;5001675;28;20216;-81
2022/09/03 09:30:50;;;;;;;9.48;5.65;;;;;;;18.99;64.53;94121.25;5001504;28;20026;-81
2022/09/03 09:33:17;;;;;;;6.50;4.57;;;;;;;19.08;64.03;94126.44;5002154;28;20093;-81
2022/09/03 09:35:43;;;;;;;10.20;5.10;;;;;;;19.12;63.31;94122.66;5002335;28;20567;-81
2022/09/03 09:38:10;;;;;;;6.63;4.53;;;;;;;19.03;64.48;94122.91;5003326;28;20260;-81
2022/09/03 09:40:40;;;;;;;6.97;5.25;;;;;;;19.11;63.37;94125.72;5003455;28;20029;-81
2022/09/03 09:43:14;;;;;;;7.63;4.57;;;;;;;19.13;64.01;94134.22;5003240;28;20069;-81
2022/09/03 09:45:47;;;;;;;8.15;4.63;;;;;;;19.15;64.26;94121.16;5003262;28;20022;-81
2022/09/03 09:48:16;;;;;;;;;;;;;;;19.14;63.76;94130.41;5004751;28;20030;-81
2022/09/03 09:50:41;;;;;;;7.82;4.00;;;;;;;19.13;63.82;94123.44;5006817;28;19905;-82
2022/09/03 09:53:16;;;;;;;7.15;4.65;;;;;;;19.25;63.55;94115.13;5007071;28;20097;-81
2022/09/03 09:55:53;;;;;;;9.05;3.83;;;;;;;19.42;62.33;94124.69;5007091;28;20056;-81
2022/09/03 09:58:22;;;;;;;5.40;3.95;;;;;;;19.41;62.85;94115.78;5007247;28;20022;-81
2022/09/03 10:01:24;;;;;;;5.82;4.22;;;;;;;19.52;64.54;94123.25;5022174;28;20088;-81
2022/09/03 10:03:56;;;;;;;6.63;4.85;;;;;;;19.75;62.52;94123.28;5007115;28;20224;-80
2022/09/03 10:09:14;;;;;;;6.93;4.90;;;;;;;19.80;61.73;94114.81;5006944;28;20260;-81
2022/09/03 10:11:44;;;;;;;8.80;5.38;;;;;;;19.87;62.38;94114.16;5005794;28;20033;-81
2022/09/03 10:14:21;;;;;;;9.95;4.30;;;;;;;19.94;61.32;94120.44;5006897;28;20037;-80
2022/09/03 10:16:53;;;;;;;7.45;5.03;;;;;;;19.82;62.17;94110.63;5007115;28;20041;-80
2022/09/03 10:19:33;;;;;;;5.38;3.92;;;;;;;19.79;62.33;94110.56;5006775;28;20022;-81
2022/09/03 10:22:18;;;;;;;9.70;4.93;;;;;;;19.90;62.69;94110.72;5006851;28;20022;-81
2022/09/03 10:24:59;;;;;;;7.82;4.95;;;;;;;20.02;61.41;94111.25;5006448;28;20026;-81
2022/09/03 10:27:25;;;;;;;6.38;4.30;;;;;;;20.18;61.65;94113.78;5006817;28;20014;-80
2022/09/03 10:29:52;;;;;;;6.22;4.45;;;;;;;20.28;60.22;94106.94;5006948;28;20213;-81
2022/09/03 10:32:47;;;;;;;4.88;4.00;;;;;;;20.34;59.85;94112.81;5007175;28;20022;-81
2022/09/03 10:35:33;;;;;;;5.50;4.00;;;;;;;20.27;60.34;94104.59;5006904;28;20065;-81
2022/09/03 10:38:24;;;;;;;6.38;4.15;;;;;;;20.33;60.71;94103.13;5006630;28;20339;-82
2022/09/03 10:41:14;;;;;;;9.55;5.22;;;;;;;20.48;59.93;94109.50;5006847;28;20109;-81
2022/09/03 10:44:05;;;;;;;6.93;4.80;;;;;;;20.56;59.96;94108.44;5006365;28;20081;-81
2022/09/03 10:46:59;;;;;;;6.47;4.72;;;;;;;20.74;60.92;94105.94;5006469;28;20269;-81
2022/09/03 10:49:48;;;;;;;6.78;4.57;;;;;;;20.80;59.36;94107.94;5006372;28;20228;-81
2022/09/03 10:52:16;;;;;;;9.55;4.82;;;;;;;20.86;59.25;94104.88;5006382;28;20029;-81
2022/09/03 10:55:05;;;;;;;5.03;3.75;;;;;;;20.92;57.18;94104.16;5006114;28;20220;-80
2022/09/03 10:57:52;;;;;;;4.55;3.47;;;;;;;20.90;58.40;94106.47;5006045;28;20029;-81
2022/09/03 11:00:19;;;;;;;5.50;4.00;;;;;;;20.73;58.66;94102.44;5006011;28;20030;-81
2022/09/03 11:03:13;;;;;;;5.20;3.97;;;;;;;20.81;58.45;94106.78;5006061;28;20027;-81
2022/09/03 11:05:52;;;;;;;4.80;3.60;;;;;;;20.96;57.79;94104.97;5000711;28;20104;-81
2022/09/03 11:08:25;;;;;;;6.15;4.03;;;;;;;21.06;58.31;94117.06;5006017;28;20030;-82
2022/09/03 11:10:56;;;;;;;5.55;3.80;;;;;;;21.08;57.36;94114.00;5005919;28;20266;-81
2022/09/03 11:13:46;;;;;;;5.38;4.15;;;;;;;21.06;56.40;94114.38;5005687;28;20034;-81
2022/09/03 11:16:19;;;;;;;5.38;4.10;;;;;;;21.04;56.99;94109.34;5005733;28;20033;-80
2022/09/03 11:19:05;;;;;;;7.95;4.60;;;;;;;21.08;58.66;94114.00;5005610;28;20026;-82
2022/09/03 11:21:36;;;;;;;5.78;3.95;;;;;;;21.06;56.50;94121.72;5005752;28;20053;-82
2022/09/03 11:24:21;;;;;;;7.78;3.72;;;;;;;20.98;56.03;94124.34;5005819;28;20018;-82
2022/09/03 11:27:01;;;;;;;9.30;3.95;;;;;;;20.88;57.73;94108.78;5005820;28;20093;-81
2022/09/03 11:30:13;;;;;;;6.72;3.90;;;;;;;20.95;56.67;94108.84;5005476;28;20068;-82
2022/09/03 11:33:00;;;;;;;5.10;3.73;;;;;;;21.03;56.11;94115.13;4995587;28;20034;-81
2022/09/03 11:35:40;;;;;;;12.45;4.25;;;;;;;21.16;56.00;94102.06;5005447;28;20312;-81
2022/09/03 11:38:15;;;;;;;6.55;3.70;;;;;;;21.23;55.66;94123.81;5005314;28;20072;-81
2022/09/03 11:41:11;;;;;;;8.75;4.10;;;;;;;21.21;56.01;94110.63;5005431;28;20190;-81
2022/09/03 11:43:36;;;;;;;5.05;3.13;;;;;;;21.23;54.35;94113.00;5005310;28;20018;-82
2022/09/03 11:46:13;;;;;;;5.57;3.97;;;;;;;21.17;54.88;94103.66;5005320;28;20045;-81
2022/09/03 11:48:44;;;;;;;4.50;3.53;;;;;;;21.14;56.36;94109.78;5005202;28;20022;-81
2022/09/03 11:51:32;;;;;;;5.33;3.57;;;;;;;21.36;55.57;94108.03;5005312;28;20045;-81
2022/09/03 11:54:00;;;;;;;4.85;3.53;;;;;;;21.60;54.35;94114.84;5005010;28;20098;-81
2022/09/03 11:56:28;;;;;;;4.18;2.95;;;;;;;21.59;53.54;94113.28;5005121;28;20050;-81
2022/09/03 11:59:15;;;;;;;4.90;3.40;;;;;;;21.56;54.20;94114.03;5020173;28;20030;-81